sensor_id;sensor_type;location;lat;lon;timestamp;pressure;altitude;pressure_sealevel;temperature;humidity
50550;BME280;36505;52.512;13.460;2022-07-10T00:00:33;101462.31;;;14.48;59.71
50550;BME280;36505;52.512;13.460;2022-07-10T00:03:00;101470.06;;;14.51;59.53
50550;BME280;36505;52.512;13.460;2022-07-10T00:05:26;101475.34;;;14.53;59.46
50550;BME280;36505;52.512;13.460;2022-07-10T00:07:52;101478.91;;;14.53;59.54
50550;BME280;36505;52.512;13.460;2022-07-10T00:10:18;101480.56;;;14.54;59.36
50550;BME280;36505;52.512;13.460;2022-07-10T00:12:45;101477.81;;;14.54;59.18
50550;BME280;36505;52.512;13.460;2022-07-10T00:15:11;101472.91;;;14.56;59.28
50550;BME280;36505;52.512;13.460;2022-07-10T00:17:37;101476.50;;;14.57;59.16
50550;BME280;36505;52.512;13.460;2022-07-10T00:20:05;101471.56;;;14.59;59.18
50550;BME280;36505;52.512;13.460;2022-07-10T00:22:30;101473.56;;;14.63;58.88
50550;BME280;36505;52.512;13.460;2022-07-10T00:24:56;101464.19;;;14.65;59.09
50550;BME280;36505;52.512;13.460;2022-07-10T00:27:21;101474.69;;;14.68;58.78
50550;BME280;36505;52.512;13.460;2022-07-10T00:29:48;101466.72;;;14.66;58.98
50550;BME280;36505;52.512;13.460;2022-07-10T00:32:13;101467.56;;;14.67;58.84
50550;BME280;36505;52.512;13.460;2022-07-10T00:34:39;101460.91;;;14.68;59.03
50550;BME280;36505;52.512;13.460;2022-07-10T00:37:04;101467.03;;;14.70;58.84
50550;BME280;36505;52.512;13.460;2022-07-10T00:39:30;101464.25;;;14.70;59.03
50550;BME280;36505;52.512;13.460;2022-07-10T00:42:05;101462.84;;;14.67;59.12
50550;BME280;36505;52.512;13.460;2022-07-10T00:44:31;101453.19;;;14.65;59.14
50550;BME280;36505;52.512;13.460;2022-07-10T00:46:56;101456.00;;;14.70;59.05
50550;BME280;36505;52.512;13.460;2022-07-10T00:49:22;101451.31;;;14.70;59.22
50550;BME280;36505;52.512;13.460;2022-07-10T00:51:47;101454.06;;;14.70;59.29
50550;BME280;36505;52.512;13.460;2022-07-10T00:54:13;101446.66;;;14.71;59.00
50550;BME280;36505;52.512;13.460;2022-07-10T00:56:38;101446.31;;;14.67;58.90
50550;BME280;36505;52.512;13.460;2022-07-10T00:59:04;101442.16;;;14.65;59.39
50550;BME280;36505;52.512;13.460;2022-07-10T01:01:30;101446.31;;;14.67;59.48
50550;BME280;36505;52.512;13.460;2022-07-10T01:03:55;101442.47;;;14.68;59.45
50550;BME280;36505;52.512;13.460;2022-07-10T01:06:20;101436.09;;;14.68;59.27
50550;BME280;36505;52.512;13.460;2022-07-10T01:08:46;101437.22;;;14.67;59.12
50550;BME280;36505;52.512;13.460;2022-07-10T01:11:12;101436.88;;;14.63;59.31
50550;BME280;36505;52.512;13.460;2022-07-10T01:13:38;101437.72;;;14.63;59.04
50550;BME280;36505;52.512;13.460;2022-07-10T01:16:04;101429.47;;;14.63;59.30
50550;BME280;36505;52.512;13.460;2022-07-10T01:18:30;101431.63;;;14.61;59.29
50550;BME280;36505;52.512;13.460;2022-07-10T01:20:56;101425.03;;;14.62;59.50
50550;BME280;36505;52.512;13.460;2022-07-10T01:23:21;101419.75;;;14.61;59.47
50550;BME280;36505;52.512;13.460;2022-07-10T01:25:47;101424.72;;;14.59;59.65
50550;BME280;36505;52.512;13.460;2022-07-10T01:28:13;101420.88;;;14.60;59.89
50550;BME280;36505;52.512;13.460;2022-07-10T01:30:38;101417.00;;;14.61;59.56
50550;BME280;36505;52.512;13.460;2022-07-10T01:33:04;101428.88;;;14.61;59.72
50550;BME280;36505;52.512;13.460;2022-07-10T01:35:29;101419.44;;;14.57;59.87
50550;BME280;36505;52.512;13.460;2022-07-10T01:37:54;101424.78;;;14.64;59.81
50550;BME280;36505;52.512;13.460;2022-07-10T01:40:20;101426.44;;;14.65;59.91
50550;BME280;36505;52.512;13.460;2022-07-10T01:42:45;101416.25;;;14.66;60.01
50550;BME280;36505;52.512;13.460;2022-07-10T01:45:11;101420.69;;;14.67;60.09
50550;BME280;36505;52.512;13.460;2022-07-10T01:47:37;101419.56;;;14.68;59.96
50550;BME280;36505;52.512;13.460;2022-07-10T01:50:03;101421.78;;;14.66;59.75
50550;BME280;36505;52.512;13.460;2022-07-10T01:52:29;101419.75;;;14.61;59.84
50550;BME280;36505;52.512;13.460;2022-07-10T01:54:54;101420.28;;;14.58;59.80
50550;BME280;36505;52.512;13.460;2022-07-10T01:57:20;101414.78;;;14.58;59.99
50550;BME280;36505;52.512;13.460;2022-07-10T01:59:45;101425.78;;;14.58;59.75
50550;BME280;36505;52.512;13.460;2022-07-10T02:02:11;101422.16;;;14.52;60.21
50550;BME280;36505;52.512;13.460;2022-07-10T02:04:36;101425.22;;;14.56;60.23
50550;BME280;36505;52.512;13.460;2022-07-10T02:07:11;101417.78;;;14.56;60.07
50550;BME280;36505;52.512;13.460;2022-07-10T02:09:37;101429.88;;;14.55;60.47
50550;BME280;36505;52.512;13.460;2022-07-10T02:12:04;101422.06;;;14.47;60.24
50550;BME280;36505;52.512;13.460;2022-07-10T02:14:29;101426.47;;;14.48;60.26
50550;BME280;36505;52.512;13.460;2022-07-10T02:16:55;101420.31;;;14.41;60.03
50550;BME280;36505;52.512;13.460;2022-07-10T02:19:21;101427.56;;;14.47;60.46
50550;BME280;36505;52.512;13.460;2022-07-10T02:21:46;101417.66;;;14.46;60.56
50550;BME280;36505;52.512;13.460;2022-07-10T02:24:12;101411.78;;;14.43;60.62
50550;BME280;36505;52.512;13.460;2022-07-10T02:26:37;101413.13;;;14.40;60.85
50550;BME280;36505;52.512;13.460;2022-07-10T02:29:03;101415.88;;;14.40;60.82
50550;BME280;36505;52.512;13.460;2022-07-10T02:31:28;101408.72;;;14.39;60.98
50550;BME280;36505;52.512;13.460;2022-07-10T02:33:53;101409.81;;;14.38;61.02
50550;BME280;36505;52.512;13.460;2022-07-10T02:36:19;101411.72;;;14.38;61.09
50550;BME280;36505;52.512;13.460;2022-07-10T02:38:44;101405.00;;;14.34;61.39
50550;BME280;36505;52.512;13.460;2022-07-10T02:41:10;101407.75;;;14.34;61.44
50550;BME280;36505;52.512;13.460;2022-07-10T02:43:35;101407.75;;;14.34;61.31
50550;BME280;36505;52.512;13.460;2022-07-10T02:46:00;101407.75;;;14.34;61.81
50550;BME280;36505;52.512;13.460;2022-07-10T02:48:27;101391.41;;;14.27;61.65
50550;BME280;36505;52.512;13.460;2022-07-10T02:50:52;101398.94;;;14.32;61.76
50550;BME280;36505;52.512;13.460;2022-07-10T02:53:17;101400.28;;;14.29;62.26
50550;BME280;36505;52.512;13.460;2022-07-10T02:55:43;101400.78;;;14.26;62.62
50550;BME280;36505;52.512;13.460;2022-07-10T02:58:09;101406.31;;;14.26;62.52
50550;BME280;36505;52.512;13.460;2022-07-10T03:00:35;101407.28;;;14.20;62.71
50550;BME280;36505;52.512;13.460;2022-07-10T03:03:01;101403.38;;;14.16;62.81
50550;BME280;36505;52.512;13.460;2022-07-10T03:05:26;101406.63;;;14.13;63.02
50550;BME280;36505;52.512;13.460;2022-07-10T03:07:52;101396.38;;;14.08;62.96
50550;BME280;36505;52.512;13.460;2022-07-10T03:10:17;101394.94;;;14.06;63.17
50550;BME280;36505;52.512;13.460;2022-07-10T03:12:43;101400.44;;;14.06;63.07
50550;BME280;36505;52.512;13.460;2022-07-10T03:15:09;101405.41;;;14.04;63.44
50550;BME280;36505;52.512;13.460;2022-07-10T03:17:34;101410.91;;;14.04;63.48
50550;BME280;36505;52.512;13.460;2022-07-10T03:20:00;101410.31;;;14.02;63.25
50550;BME280;36505;52.512;13.460;2022-07-10T03:22:25;101399.53;;;14.00;63.61
50550;BME280;36505;52.512;13.460;2022-07-10T03:24:50;101400.13;;;14.02;63.59
50550;BME280;36505;52.512;13.460;2022-07-10T03:27:16;101394.03;;;14.00;63.63
50550;BME280;36505;52.512;13.460;2022-07-10T03:29:41;101394.31;;;13.99;63.72
50550;BME280;36505;52.512;13.460;2022-07-10T03:32:07;101400.06;;;13.97;63.70
50550;BME280;36505;52.512;13.460;2022-07-10T03:34:32;101389.88;;;13.98;64.15
50550;BME280;36505;52.512;13.460;2022-07-10T03:36:59;101403.38;;;13.99;64.18
50550;BME280;36505;52.512;13.460;2022-07-10T03:39:25;101394.31;;;13.99;64.01
50550;BME280;36505;52.512;13.460;2022-07-10T03:41:51;101387.13;;;13.98;64.09
50550;BME280;36505;52.512;13.460;2022-07-10T03:44:16;101391.03;;;14.02;64.03
50550;BME280;36505;52.512;13.460;2022-07-10T03:46:41;101386.63;;;14.01;64.22
50550;BME280;36505;52.512;13.460;2022-07-10T03:49:07;101388.28;;;14.02;64.19
50550;BME280;36505;52.512;13.460;2022-07-10T03:51:32;101388.03;;;14.03;64.27
50550;BME280;36505;52.512;13.460;2022-07-10T03:53:57;101388.03;;;14.03;64.39
50550;BME280;36505;52.512;13.460;2022-07-10T03:56:23;101391.63;;;14.04;64.48
50550;BME280;36505;52.512;13.460;2022-07-10T03:59:07;101370.25;;;13.94;64.52
50550;BME280;36505;52.512;13.460;2022-07-10T04:01:32;101384.75;;;14.06;64.51
50550;BME280;36505;52.512;13.460;2022-07-10T04:03:57;101388.47;;;14.12;64.52
50550;BME280;36505;52.512;13.460;2022-07-10T04:06:23;101387.88;;;14.10;64.73
50550;BME280;36505;52.512;13.460;2022-07-10T04:08:48;101384.28;;;14.09;64.72
50550;BME280;36505;52.512;13.460;2022-07-10T04:11:13;101387.34;;;14.13;64.94
50550;BME280;36505;52.512;13.460;2022-07-10T04:13:39;101391.78;;;14.14;64.91
50550;BME280;36505;52.512;13.460;2022-07-10T04:16:04;101400.88;;;14.14;64.74
50550;BME280;36505;52.512;13.460;2022-07-10T04:18:30;101386.78;;;14.11;64.85
50550;BME280;36505;52.512;13.460;2022-07-10T04:20:55;101387.34;;;14.13;64.91
50550;BME280;36505;52.512;13.460;2022-07-10T04:23:20;101391.78;;;14.14;65.09
50550;BME280;36505;52.512;13.460;2022-07-10T04:25:46;101386.59;;;14.17;64.84
50550;BME280;36505;52.512;13.460;2022-07-10T04:28:11;101386.38;;;14.19;64.78
50550;BME280;36505;52.512;13.460;2022-07-10T04:30:36;101382.78;;;14.18;64.70
50550;BME280;36505;52.512;13.460;2022-07-10T04:33:02;101394.09;;;14.22;64.85
50550;BME280;36505;52.512;13.460;2022-07-10T04:35:27;101384.16;;;14.21;64.86
50550;BME280;36505;52.512;13.460;2022-07-10T04:37:52;101389.69;;;14.21;65.15
50550;BME280;36505;52.512;13.460;2022-07-10T04:40:18;101387.75;;;14.21;64.91
50550;BME280;36505;52.512;13.460;2022-07-10T04:42:44;101388.59;;;14.22;65.08
50550;BME280;36505;52.512;13.460;2022-07-10T04:45:10;101381.16;;;14.22;65.03
50550;BME280;36505;52.512;13.460;2022-07-10T04:47:35;101385.84;;;14.22;65.00
50550;BME280;36505;52.512;13.460;2022-07-10T04:50:00;101359.31;;;14.16;64.85
50550;BME280;36505;52.512;13.460;2022-07-10T04:52:26;101374.34;;;14.25;64.88
50550;BME280;36505;52.512;13.460;2022-07-10T04:54:51;101374.66;;;14.29;64.92
50550;BME280;36505;52.512;13.460;2022-07-10T04:57:16;101379.66;;;14.32;64.72
50550;BME280;36505;52.512;13.460;2022-07-10T04:59:42;101380.22;;;14.34;64.75
50550;BME280;36505;52.512;13.460;2022-07-10T05:02:07;101380.06;;;14.40;64.81
50550;BME280;36505;52.512;13.460;2022-07-10T05:04:33;101376.81;;;14.43;64.76
50550;BME280;36505;52.512;13.460;2022-07-10T05:06:58;101371.69;;;14.52;64.26
50550;BME280;36505;52.512;13.460;2022-07-10T05:09:24;101381.38;;;14.54;64.19
50550;BME280;36505;52.512;13.460;2022-07-10T05:11:49;101379.44;;;14.55;64.18
50550;BME280;36505;52.512;13.460;2022-07-10T05:14:14;101384.13;;;14.54;64.02
50550;BME280;36505;52.512;13.460;2022-07-10T05:16:41;101378.06;;;14.52;64.16
50550;BME280;36505;52.512;13.460;2022-07-10T05:19:07;101375.19;;;14.47;64.71
50550;BME280;36505;52.512;13.460;2022-07-10T05:21:32;101379.88;;;14.47;64.72
50550;BME280;36505;52.512;13.460;2022-07-10T05:23:58;101382.38;;;14.48;64.51
50550;BME280;36505;52.512;13.460;2022-07-10T05:26:24;101372.44;;;14.47;64.56
50550;BME280;36505;52.512;13.460;2022-07-10T05:28:49;101387.91;;;14.48;64.46
50550;BME280;36505;52.512;13.460;2022-07-10T05:31:14;101381.88;;;14.51;64.71
50550;BME280;36505;52.512;13.460;2022-07-10T05:33:40;101384.97;;;14.55;64.65
50550;BME280;36505;52.512;13.460;2022-07-10T05:36:07;101385.53;;;14.57;64.55
50550;BME280;36505;52.512;13.460;2022-07-10T05:38:32;101380.09;;;14.62;64.39
50550;BME280;36505;52.512;13.460;2022-07-10T05:40:57;101384.84;;;14.67;64.42
50550;BME280;36505;52.512;13.460;2022-07-10T05:43:23;101376.63;;;14.72;64.67
50550;BME280;36505;52.512;13.460;2022-07-10T05:45:48;101375.09;;;14.81;64.38
50550;BME280;36505;52.512;13.460;2022-07-10T05:48:13;101378.44;;;14.83;64.04
50550;BME280;36505;52.512;13.460;2022-07-10T05:50:39;101378.47;;;14.88;63.83
50550;BME280;36505;52.512;13.460;2022-07-10T05:53:04;101385.41;;;14.90;63.76
50550;BME280;36505;52.512;13.460;2022-07-10T05:55:29;101384.06;;;14.93;63.79
50550;BME280;36505;52.512;13.460;2022-07-10T05:57:55;101386.56;;;14.94;63.70
50550;BME280;36505;52.512;13.460;2022-07-10T06:00:20;101384.38;;;14.96;63.56
50550;BME280;36505;52.512;13.460;2022-07-10T06:02:46;101383.78;;;14.94;63.29
50550;BME280;36505;52.512;13.460;2022-07-10T06:05:11;101392.66;;;14.96;63.41
50550;BME280;36505;52.512;13.460;2022-07-10T06:07:36;101388.56;;;14.99;63.42
50550;BME280;36505;52.512;13.460;2022-07-10T06:10:03;101385.00;;;15.03;62.73
50550;BME280;36505;52.512;13.460;2022-07-10T06:12:29;101379.75;;;15.02;62.72
50550;BME280;36505;52.512;13.460;2022-07-10T06:14:54;101374.53;;;15.00;63.00
50550;BME280;36505;52.512;13.460;2022-07-10T06:17:20;101389.13;;;15.01;62.73
50550;BME280;36505;52.512;13.460;2022-07-10T06:19:45;101381.66;;;15.01;62.77
50550;BME280;36505;52.512;13.460;2022-07-10T06:22:10;101383.34;;;15.02;62.79
50550;BME280;36505;52.512;13.460;2022-07-10T06:24:54;101386.97;;;15.08;62.79
50550;BME280;36505;52.512;13.460;2022-07-10T06:27:20;101388.41;;;15.11;63.06
50550;BME280;36505;52.512;13.460;2022-07-10T06:29:45;101375.16;;;15.08;62.96
50550;BME280;36505;52.512;13.460;2022-07-10T06:32:11;101383.47;;;15.13;62.75
50550;BME280;36505;52.512;13.460;2022-07-10T06:34:36;101384.84;;;15.15;62.82
50550;BME280;36505;52.512;13.460;2022-07-10T06:37:01;101384.94;;;15.20;62.44
50550;BME280;36505;52.512;13.460;2022-07-10T06:39:31;101384.66;;;15.22;61.96
50550;BME280;36505;52.512;13.460;2022-07-10T06:41:58;101383.06;;;15.26;61.88
50550;BME280;36505;52.512;13.460;2022-07-10T06:44:25;101388.31;;;15.27;61.44
50550;BME280;36505;52.512;13.460;2022-07-10T06:46:50;101387.28;;;15.33;61.20
50550;BME280;36505;52.512;13.460;2022-07-10T06:49:35;101394.25;;;15.41;60.83
50550;BME280;36505;52.512;13.460;2022-07-10T06:52:00;101391.75;;;15.39;60.71
50550;BME280;36505;52.512;13.460;2022-07-10T06:54:26;101400.88;;;15.40;60.61
50550;BME280;36505;52.512;13.460;2022-07-10T06:56:52;101389.56;;;15.41;60.70
50550;BME280;36505;52.512;13.460;2022-07-10T06:59:17;101392.34;;;15.41;60.73
50550;BME280;36505;52.512;13.460;2022-07-10T07:01:42;101397.31;;;15.45;60.85
50550;BME280;36505;52.512;13.460;2022-07-10T07:04:08;101388.53;;;15.48;60.89
50550;BME280;36505;52.512;13.460;2022-07-10T07:06:33;101381.16;;;15.53;60.82
50550;BME280;36505;52.512;13.460;2022-07-10T07:08:58;101380.09;;;15.59;60.22
50550;BME280;36505;52.512;13.460;2022-07-10T07:11:24;101377.13;;;15.66;59.89
50550;BME280;36505;52.512;13.460;2022-07-10T07:13:49;101379.47;;;15.84;59.90
50550;BME280;36505;52.512;13.460;2022-07-10T07:16:14;101367.75;;;16.04;59.01
50550;BME280;36505;52.512;13.460;2022-07-10T07:18:43;101370.94;;;16.23;58.00
50550;BME280;36505;52.512;13.460;2022-07-10T07:21:14;101374.66;;;16.43;57.20
50550;BME280;36505;52.512;13.460;2022-07-10T07:23:58;101381.75;;;16.71;56.54
50550;BME280;36505;52.512;13.460;2022-07-10T07:26:23;101383.44;;;16.82;55.85
50550;BME280;36505;52.512;13.460;2022-07-10T07:28:49;101381.81;;;16.91;54.65
50550;BME280;36505;52.512;13.460;2022-07-10T07:31:14;101376.25;;;16.86;54.40
50550;BME280;36505;52.512;13.460;2022-07-10T07:33:43;101377.09;;;16.87;54.75
50550;BME280;36505;52.512;13.460;2022-07-10T07:36:08;101370.47;;;16.93;54.73
50550;BME280;36505;52.512;13.460;2022-07-10T07:38:33;101377.66;;;16.99;54.27
50550;BME280;36505;52.512;13.460;2022-07-10T07:40:59;101372.75;;;17.16;53.20
50550;BME280;36505;52.512;13.460;2022-07-10T07:43:25;101373.31;;;17.18;52.34
50550;BME280;36505;52.512;13.460;2022-07-10T07:45:50;101377.50;;;17.31;51.92
50550;BME280;36505;52.512;13.460;2022-07-10T07:48:15;101379.44;;;17.35;51.24
50550;BME280;36505;52.512;13.460;2022-07-10T07:50:41;101383.31;;;17.34;51.08
50550;BME280;36505;52.512;13.460;2022-07-10T07:53:06;101382.47;;;17.34;51.42
50550;BME280;36505;52.512;13.460;2022-07-10T07:55:33;101372.25;;;17.45;51.20
50550;BME280;36505;52.512;13.460;2022-07-10T07:57:59;101374.81;;;17.71;49.59
50550;BME280;36505;52.512;13.460;2022-07-10T08:00:26;101375.06;;;18.05;49.01
50550;BME280;36505;52.512;13.460;2022-07-10T08:02:53;101376.06;;;18.50;47.92
50550;BME280;36505;52.512;13.460;2022-07-10T08:05:19;101379.84;;;18.89;46.98
50550;BME280;36505;52.512;13.460;2022-07-10T08:07:48;101371.97;;;19.07;46.26
50550;BME280;36505;52.512;13.460;2022-07-10T08:10:19;101371.47;;;19.49;45.32
50550;BME280;36505;52.512;13.460;2022-07-10T08:12:45;101371.22;;;19.84;44.87
50550;BME280;36505;52.512;13.460;2022-07-10T08:15:13;101361.44;;;20.16;43.51
50550;BME280;36505;52.512;13.460;2022-07-10T08:17:39;101360.06;;;20.13;43.33
50550;BME280;36505;52.512;13.460;2022-07-10T08:20:07;101356.78;;;20.11;42.72
50550;BME280;36505;52.512;13.460;2022-07-10T08:22:33;101358.78;;;20.05;43.18
50550;BME280;36505;52.512;13.460;2022-07-10T08:24:59;101354.88;;;20.35;42.69
50550;BME280;36505;52.512;13.460;2022-07-10T08:27:25;101351.16;;;21.30;40.54
50550;BME280;36505;52.512;13.460;2022-07-10T08:29:50;101355.16;;;22.67;38.61
50550;BME280;36505;52.512;13.460;2022-07-10T08:32:16;101352.81;;;23.82;37.27
50550;BME280;36505;52.512;13.460;2022-07-10T08:34:41;101347.16;;;24.49;35.06
50550;BME280;36505;52.512;13.460;2022-07-10T08:37:06;101355.22;;;24.20;35.01
50550;BME280;36505;52.512;13.460;2022-07-10T08:39:33;101353.28;;;23.53;35.78
50550;BME280;36505;52.512;13.460;2022-07-10T08:41:59;101353.09;;;22.87;36.36
50550;BME280;36505;52.512;13.460;2022-07-10T08:44:24;101354.31;;;22.26;37.55
50550;BME280;36505;52.512;13.460;2022-07-10T08:46:49;101360.03;;;21.70;38.42
50550;BME280;36505;52.512;13.460;2022-07-10T08:49:16;101360.84;;;21.14;39.76
50550;BME280;36505;52.512;13.460;2022-07-10T08:54:23;101353.59;;;20.23;42.03
50550;BME280;36505;52.512;13.460;2022-07-10T08:56:50;101368.41;;;20.13;41.81
50550;BME280;36505;52.512;13.460;2022-07-10T08:59:17;101369.44;;;20.22;42.48
50550;BME280;36505;52.512;13.460;2022-07-10T09:01:43;101374.56;;;20.10;42.73
50550;BME280;36505;52.512;13.460;2022-07-10T09:04:16;101374.75;;;19.90;43.45
50550;BME280;36505;52.512;13.460;2022-07-10T09:06:43;101365.50;;;19.65;43.56
50550;BME280;36505;52.512;13.460;2022-07-10T09:09:08;101380.94;;;19.48;44.10
50550;BME280;36505;52.512;13.460;2022-07-10T09:11:35;101386.63;;;19.22;44.92
50550;BME280;36505;52.512;13.460;2022-07-10T09:14:03;101395.59;;;19.04;45.69
50550;BME280;36505;52.512;13.460;2022-07-10T09:16:34;101387.59;;;18.92;45.24
50550;BME280;36505;52.512;13.460;2022-07-10T09:21:40;101386.28;;;18.70;45.40
50550;BME280;36505;52.512;13.460;2022-07-10T09:24:07;101383.81;;;18.63;45.63
50550;BME280;36505;52.512;13.460;2022-07-10T09:26:33;101395.16;;;18.77;44.99
50550;BME280;36505;52.512;13.460;2022-07-10T09:29:10;101387.69;;;18.72;44.10
50550;BME280;36505;52.512;13.460;2022-07-10T09:34:40;101390.75;;;18.66;44.63
50550;BME280;36505;52.512;13.460;2022-07-10T09:37:25;101396.28;;;18.71;44.94
50550;BME280;36505;52.512;13.460;2022-07-10T09:40:05;101382.41;;;18.76;44.41
50550;BME280;36505;52.512;13.460;2022-07-10T09:42:38;101391.25;;;18.88;44.76
50550;BME280;36505;52.512;13.460;2022-07-10T09:50:08;101392.28;;;19.02;44.07
50550;BME280;36505;52.512;13.460;2022-07-10T09:52:45;101389.50;;;19.02;43.83
50550;BME280;36505;52.512;13.460;2022-07-10T09:55:12;101390.56;;;19.11;43.84
50550;BME280;36505;52.512;13.460;2022-07-10T09:57:38;101386.66;;;19.17;43.85
50550;BME280;36505;52.512;13.460;2022-07-10T10:00:04;101384.34;;;19.29;42.78
50550;BME280;36505;52.512;13.460;2022-07-10T10:02:30;101383.75;;;19.32;43.10
50550;BME280;36505;52.512;13.460;2022-07-10T10:04:55;101378.72;;;19.40;42.92
50550;BME280;36505;52.512;13.460;2022-07-10T10:07:20;101373.44;;;19.38;43.09
50550;BME280;36505;52.512;13.460;2022-07-10T10:09:51;101373.44;;;19.38;43.11
50550;BME280;36505;52.512;13.460;2022-07-10T10:12:42;101382.06;;;19.42;43.25
50550;BME280;36505;52.512;13.460;2022-07-10T10:15:11;101378.25;;;19.27;43.46
50550;BME280;36505;52.512;13.460;2022-07-10T10:17:38;101381.91;;;19.18;43.89
50550;BME280;36505;52.512;13.460;2022-07-10T10:20:07;101378.56;;;19.21;44.42
50550;BME280;36505;52.512;13.460;2022-07-10T10:22:52;101381.03;;;19.27;44.24
50550;BME280;36505;52.512;13.460;2022-07-10T10:25:20;101391.56;;;19.30;43.49
50550;BME280;36505;52.512;13.460;2022-07-10T10:27:48;101386.84;;;19.31;43.37
50550;BME280;36505;52.512;13.460;2022-07-10T10:30:15;101396.84;;;19.27;43.71
50550;BME280;36505;52.512;13.460;2022-07-10T10:32:40;101391.31;;;19.27;43.12
50550;BME280;36505;52.512;13.460;2022-07-10T10:35:06;101393.22;;;19.31;43.58
50550;BME280;36505;52.512;13.460;2022-07-10T10:37:41;101389.31;;;19.32;43.18
50550;BME280;36505;52.512;13.460;2022-07-10T10:40:11;101397.34;;;19.39;43.78
50550;BME280;36505;52.512;13.460;2022-07-10T10:42:43;101394.25;;;19.51;43.31
50550;BME280;36505;52.512;13.460;2022-07-10T10:45:31;101391.38;;;19.61;43.39
50550;BME280;36505;52.512;13.460;2022-07-10T10:48:01;101391.06;;;19.67;43.00
50550;BME280;36505;52.512;13.460;2022-07-10T10:53:14;101409.69;;;19.67;42.24
50550;BME280;36505;52.512;13.460;2022-07-10T10:55:41;101405.22;;;19.71;42.39
50550;BME280;36505;52.512;13.460;2022-07-10T10:58:26;101395.22;;;19.70;40.84
50550;BME280;36505;52.512;13.460;2022-07-10T11:00:51;101404.41;;;19.65;41.06
50550;BME280;36505;52.512;13.460;2022-07-10T11:03:21;101394.94;;;19.71;40.40
50550;BME280;36505;52.512;13.460;2022-07-10T11:05:48;101400.72;;;19.75;40.76
50550;BME280;36505;52.512;13.460;2022-07-10T11:08:35;101405.97;;;19.82;40.57
50550;BME280;36505;52.512;13.460;2022-07-10T11:11:00;101400.94;;;19.84;40.29
50550;BME280;36505;52.512;13.460;2022-07-10T11:13:27;101400.16;;;19.78;40.77
50550;BME280;36505;52.512;13.460;2022-07-10T11:15:55;101394.44;;;19.64;40.96
50550;BME280;36505;52.512;13.460;2022-07-10T11:18:23;101401.44;;;19.52;41.12
50550;BME280;36505;52.512;13.460;2022-07-10T11:20:50;101408.69;;;19.48;41.63
50550;BME280;36505;52.512;13.460;2022-07-10T11:24:18;101406.75;;;19.48;42.31
50550;BME280;36505;52.512;13.460;2022-07-10T11:29:04;101408.28;;;19.69;42.06
50550;BME280;36505;52.512;13.460;2022-07-10T11:31:33;101400.69;;;19.80;41.68
50550;BME280;36505;52.512;13.460;2022-07-10T11:34:10;101392.84;;;19.87;41.94
50550;BME280;36505;52.512;13.460;2022-07-10T11:36:39;101404.56;;;19.84;41.56
50550;BME280;36505;52.512;13.460;2022-07-10T11:39:08;101419.31;;;19.80;41.53
50550;BME280;36505;52.512;13.460;2022-07-10T11:41:41;101409.06;;;19.75;42.03
50550;BME280;36505;52.512;13.460;2022-07-10T11:44:06;101404.56;;;19.79;41.88
50550;BME280;36505;52.512;13.460;2022-07-10T11:46:37;101408.69;;;19.87;41.63
50550;BME280;36505;52.512;13.460;2022-07-10T11:49:04;101400.00;;;19.98;41.11
50550;BME280;36505;52.512;13.460;2022-07-10T11:51:33;101402.72;;;20.03;40.68
50550;BME280;36505;52.512;13.460;2022-07-10T11:54:17;101399.09;;;20.03;41.55
50550;BME280;36505;52.512;13.460;2022-07-10T11:56:51;101407.69;;;20.06;41.05
50550;BME280;36505;52.512;13.460;2022-07-10T11:59:18;101409.00;;;20.14;41.03
50550;BME280;36505;52.512;13.460;2022-07-10T12:01:50;101394.25;;;20.19;40.74
50550;BME280;36505;52.512;13.460;2022-07-10T12:04:17;101406.44;;;20.23;41.45
50550;BME280;36505;52.512;13.460;2022-07-10T12:06:47;101407.59;;;20.17;40.87
50550;BME280;36505;52.512;13.460;2022-07-10T12:09:15;101410.16;;;20.08;41.55
50550;BME280;36505;52.512;13.460;2022-07-10T12:11:43;101411.69;;;19.95;41.10
50550;BME280;36505;52.512;13.460;2022-07-10T12:14:19;101405.97;;;19.82;40.91
50550;BME280;36505;52.512;13.460;2022-07-10T12:16:47;101414.06;;;19.73;41.88
50550;BME280;36505;52.512;13.460;2022-07-10T12:19:17;101410.78;;;19.66;42.11
50550;BME280;36505;52.512;13.460;2022-07-10T12:21:46;101413.91;;;19.59;41.48
50550;BME280;36505;52.512;13.460;2022-07-10T12:24:13;101407.50;;;19.59;41.54
50550;BME280;36505;52.512;13.460;2022-07-10T12:26:40;101405.53;;;19.64;41.67
50550;BME280;36505;52.512;13.460;2022-07-10T12:29:11;101384.16;;;19.60;41.54
50550;BME280;36505;52.512;13.460;2022-07-10T12:31:37;101403.56;;;19.70;41.03
50550;BME280;36505;52.512;13.460;2022-07-10T12:34:04;101405.78;;;19.68;41.36
50550;BME280;36505;52.512;13.460;2022-07-10T12:39:19;101409.16;;;19.65;41.25
50550;BME280;36505;52.512;13.460;2022-07-10T12:44:43;101400.81;;;19.65;41.92
50550;BME280;36505;52.512;13.460;2022-07-10T12:47:16;101411.09;;;19.64;42.02
50550;BME280;36505;52.512;13.460;2022-07-10T12:49:56;101402.75;;;19.64;41.80
50550;BME280;36505;52.512;13.460;2022-07-10T12:52:30;101411.66;;;19.61;41.90
50550;BME280;36505;52.512;13.460;2022-07-10T12:57:58;101404.72;;;19.64;42.33
50550;BME280;36505;52.512;13.460;2022-07-10T13:00:29;101399.69;;;19.66;42.56
50550;BME280;36505;52.512;13.460;2022-07-10T13:03:00;101406.06;;;19.71;42.32
50550;BME280;36505;52.512;13.460;2022-07-10T13:08:23;101407.44;;;19.69;42.27
50550;BME280;36505;52.512;13.460;2022-07-10T13:10:54;101411.44;;;19.58;42.15